Parkdale, Oregon
Current Conditions -  °F | °C
As of 7:59 AM on Thursday 18 Dec 2014 (Local Time) from K4S2 Reporting Station
Overcast Overcast  
Wind Chill:   Ceiling: 1000
Heat Index:   Visibility: 10mi
Dew Point:   Wind: 3mph
Humidity: 100%   Direction: 190°S
Pressure: 30.04"   Gusts: NA
Location:  45.3977°N, 121.59°W
Report Text: K4S2 181559Z AUTO 19003KT 10SM OVC010 03/03 A3004 RMK AO2 SLP187 T00300030
Loading
Personal Weather Stations






























Interactive Weather Map New forecast layout! Learn more

10-Day Weather Forecast

Advertisements
Track Severe Weather on mobile